Terminal Aerodrome Forecast
Issued by NWS

Home | Current Version | Previous Version | Text Only | Print | Product List | Glossary On
Versions: 1 2 3 4 5 6 7 8 9 10 11 12 13 14
798
FTUS41 KCAR 260132 AAA
TAFPQI
TAF AMD
KPQI 260132Z 2602/2624 14010KT 6SM -RA OVC008
     FM260400 15010KT 2SM -RA OVC003 WS020/16040KT
     FM260600 14010KT 1SM BR OVC003 WS020/15040KT
     FM261100 16015KT 1SM -RA BR OVC007 WS020/15045KT
     FM261400 16012KT 2SM -RA BR OVC007 WS020/15045KT
     FM261800 19008KT 5SM -RA OVC007=

USA.gov is the U.S. government's official web portal to all federal, state and local government web resources and services.